Rr Barranquilla — NC12345 — position and weather

sailwx.info

Track history (hours):
 
Tides and Currents Weather Stations Pressure Air Temp Water Temp Dewpoint Dewpoint Depression Visibility Wind Speed Wind Dir Waves Ship Positions

Rr Barranquilla

Last reported at 2018-Feb-04 02:20 UTC. Time now 2018-Feb-24 06:52 UTC.
Position N 10°09' W 075°30'.
Warning: this ship's position is 20 days out of date.

Length 37 m.

Type: Towing. MMSI: 799999999.

Date/timePositionNaut miles runAvg speedWind from/ knotsBaromVisibWave heightAir tempDewpointWater temp
2018-Feb-04 02:20N 10°09' W 075°30'1 3.6
2018-Feb-04 02:00N 10°10' W 075°30'2 3.9
2018-Feb-04 01:30N 10°12' W 075°31'0 0.9
2018-Feb-04 00:59N 10°12' W 075°31'4 3.1
2018-Feb-03 23:36N 10°17' W 075°31'0 0.0
2018-Feb-03 23:24N 10°17' W 075°31'0 0.0
2018-Feb-03 23:00N 10°17' W 075°31'0 0.0
2018-Feb-03 22:30N 10°17' W 075°31'0 0.0
2018-Feb-03 21:57N 10°17' W 075°31'0 0.0
2018-Feb-03 21:29N 10°17' W 075°31'0 0.0
2018-Feb-03 21:00N 10°17' W 075°31'0 0.0
2018-Feb-03 20:28N 10°17' W 075°31'0 0.0
2018-Feb-03 20:00N 10°17' W 075°31'0 0.0
2018-Feb-03 18:29N 10°17' W 075°31'0 0.0
2018-Feb-03 18:00N 10°17' W 075°31'0 0.0
2018-Feb-03 17:29N 10°17' W 075°31'0 0.0
2018-Feb-03 16:55N 10°17' W 075°31'4 4.7
2018-Feb-03 15:59N 10°12' W 075°31'0 0.0
2018-Feb-03 15:30N 10°12' W 075°31'0 0.3
2018-Feb-03 15:00N 10°12' W 075°31'0 0.0
2018-Feb-03 14:30N 10°12' W 075°31'0 0.2
2018-Feb-03 14:00N 10°12' W 075°31'0 0.2
2018-Feb-03 13:29N 10°12' W 075°31'0 0.0
2018-Feb-03 13:00N 10°12' W 075°31'0 0.0
2018-Feb-03 12:25N 10°12' W 075°31'0 0.1
2018-Feb-03 12:00N 10°12' W 075°31'0 0.0
2018-Feb-03 10:57N 10°12' W 075°31'0 0.0
2018-Feb-03 10:30N 10°12' W 075°31'0 0.0
2018-Feb-03 10:00N 10°12' W 075°31'0 0.0
2018-Feb-03 09:30N 10°12' W 075°31'0 0.0
2018-Feb-03 08:59N 10°12' W 075°31'0 0.0
2018-Feb-03 08:30N 10°12' W 075°31'0 0.0
2018-Feb-03 08:00N 10°12' W 075°31'0 0.0
2018-Feb-03 06:30N 10°12' W 075°31'0 0.0
2018-Feb-03 05:59N 10°12' W 075°31'0 0.0
2018-Feb-03 05:29N 10°12' W 075°31'0 0.0
2018-Feb-03 05:00N 10°12' W 075°31'1 1.4
2018-Feb-03 04:00N 10°14' W 075°31'3 5.9
2018-Feb-03 03:30N 10°17' W 075°31'3 1.8
2018-Feb-03 02:00N 10°14' W 075°31'1 1.7
2018-Feb-03 01:29N 10°15' W 075°31'2 4.9
2018-Feb-03 01:00N 10°17' W 075°31'0 0.0
2018-Feb-02 23:28N 10°17' W 075°31'0 0.0
2018-Feb-02 23:00N 10°17' W 075°31'0 0.0
2018-Feb-02 22:30N 10°17' W 075°31'0 0.0
2018-Feb-02 21:58N 10°17' W 075°31'0 0.0
2018-Feb-02 21:30N 10°17' W 075°31'0 0.0
2018-Feb-02 20:59N 10°17' W 075°31'0 0.9
2018-Feb-02 20:28N 10°17' W 075°31'0 0.0
2018-Feb-02 18:08N 10°17' W 075°31'0 0.0
2018-Feb-02 17:57N 10°17' W 075°31'0 0.0
2018-Feb-02 17:30N 10°17' W 075°31'0 0.0
2018-Feb-02 16:58N 10°17' W 075°31'0 0.0
2018-Feb-02 16:28N 10°17' W 075°31'0 0.0
2018-Feb-02 15:30N 10°17' W 075°31'0 0.0
2018-Feb-02 14:30N 10°17' W 075°31'0 0.0
2018-Feb-02 14:00N 10°17' W 075°31'0 0.0
2018-Feb-02 13:21N 10°17' W 075°31'0 0.0
2018-Feb-02 12:59N 10°17' W 075°31'0 0.0
2018-Feb-02 12:30N 10°17' W 075°31'0 0.0
2018-Feb-02 12:00N 10°17' W 075°31'0 0.0
2018-Feb-02 11:30N 10°17' W 075°31'0 0.0
2018-Feb-02 10:59N 10°17' W 075°31'0 0.0
2018-Feb-02 10:03N 10°17' W 075°31'0 0.0
2018-Feb-02 10:00N 10°17' W 075°31'0 0.0
2018-Feb-02 09:30N 10°17' W 075°31'0 0.0
2018-Feb-02 09:00N 10°17' W 075°31'0 0.0
2018-Feb-02 08:31N 10°17' W 075°31'0 0.0
2018-Feb-02 08:00N 10°17' W 075°31'0 0.0
2018-Feb-02 07:30N 10°17' W 075°31'0 0.0
2018-Feb-02 07:00N 10°17' W 075°31'0 0.0
2018-Feb-02 06:29N 10°17' W 075°31'0 0.0
2018-Feb-02 06:00N 10°17' W 075°31'0 0.0
2018-Feb-02 05:29N 10°17' W 075°31'0 0.0
2018-Feb-02 04:59N 10°17' W 075°31'0 0.0
2018-Feb-02 04:29N 10°17' W 075°31'0 0.0
2018-Feb-02 04:00N 10°17' W 075°31'0 0.0
2018-Feb-02 03:30N 10°17' W 075°31'0 0.0
2018-Feb-02 03:00N 10°17' W 075°31'0 0.0
2018-Feb-02 02:30N 10°17' W 075°31'0 0.0
2018-Feb-02 02:00N 10°17' W 075°31'0 0.0
2018-Feb-02 01:30N 10°17' W 075°31'0 0.0
2018-Feb-02 01:00N 10°17' W 075°31'0 0.0
2018-Feb-02 00:29N 10°17' W 075°31'0 0.0
2018-Feb-02 00:00N 10°17' W 075°31'0 0.0
2018-Feb-01 23:30N 10°17' W 075°31'0 0.0
2018-Feb-01 23:00N 10°17' W 075°31'0 0.0
2018-Feb-01 21:48N 10°17' W 075°31'0 0.0
2018-Feb-01 21:28N 10°17' W 075°31'0 0.0
2018-Feb-01 19:30N 10°17' W 075°31'0 0.0
2018-Feb-01 19:00N 10°17' W 075°31'0 0.0
2018-Feb-01 18:30N 10°17' W 075°31'0 0.0
2018-Feb-01 17:59N 10°17' W 075°31'0 0.0
2018-Feb-01 17:29N 10°17' W 075°31'0 0.0
2018-Feb-01 16:59N 10°17' W 075°31'0 0.0
2018-Feb-01 16:30N 10°17' W 075°31'0 0.0
2018-Feb-01 16:00N 10°17' W 075°31'0 0.0
2018-Feb-01 15:30N 10°17' W 075°31'0 0.0
2018-Feb-01 15:00N 10°17' W 075°31'0 0.0
2018-Feb-01 13:29N 10°17' W 075°31'0 0.0
2018-Feb-01 13:00N 10°17' W 075°31'0 0.0
2018-Feb-01 12:30N 10°17' W 075°31'0 0.0
2018-Feb-01 12:00N 10°17' W 075°31'0 0.0
2018-Feb-01 11:00N 10°17' W 075°31'0 0.0
2018-Feb-01 10:29N 10°17' W 075°31'0 0.0
2018-Feb-01 10:00N 10°17' W 075°31'0 0.0
2018-Feb-01 09:30N 10°17' W 075°31'0 0.0
2018-Feb-01 09:00N 10°17' W 075°31'0 0.0
2018-Feb-01 08:30N 10°17' W 075°31'0 0.0
2018-Feb-01 07:30N 10°17' W 075°31'0 0.0
2018-Feb-01 07:00N 10°17' W 075°31'0 0.0
2018-Feb-01 06:30N 10°17' W 075°31'0 0.0
2018-Feb-01 06:00N 10°17' W 075°31'0 0.0
2018-Feb-01 05:30N 10°17' W 075°31'0 0.0
2018-Feb-01 05:00N 10°17' W 075°31'0 0.0
2018-Feb-01 04:30N 10°17' W 075°31'0 0.0
2018-Feb-01 04:00N 10°17' W 075°31'0 0.0
2018-Feb-01 03:00N 10°17' W 075°31'0 0.0
2018-Feb-01 02:30N 10°17' W 075°31'0 0.0
2018-Feb-01 01:59N 10°17' W 075°31'0 0.0
2018-Feb-01 01:27N 10°17' W 075°31'0 0.0
2018-Feb-01 01:00N 10°17' W 075°31'0 0.0
2018-Feb-01 00:29N 10°17' W 075°31'0 0.0
2018-Feb-01 00:00N 10°17' W 075°31'0 0.0
2018-Jan-31 23:00N 10°17' W 075°31'0 0.0
2018-Jan-31 22:27N 10°17' W 075°31'0 0.0
2018-Jan-31 20:59N 10°17' W 075°31'0 0.0
2018-Jan-31 20:30N 10°17' W 075°31'0 0.0
2018-Jan-31 20:00N 10°17' W 075°31'0 0.0
2018-Jan-31 19:30N 10°17' W 075°31'0 0.0
2018-Jan-31 18:59N 10°17' W 075°31'0 0.0
2018-Jan-31 16:35N 10°17' W 075°31'0 0.0
2018-Jan-31 16:20N 10°17' W 075°31'0 0.0
2018-Jan-31 15:56N 10°17' W 075°31'0 0.0
2018-Jan-31 14:53N 10°17' W 075°31'0 0.0
2018-Jan-31 14:29N 10°17' W 075°31'0 0.0
2018-Jan-31 13:00N 10°17' W 075°31'0 0.0
2018-Jan-31 12:28N 10°17' W 075°31'0 0.0
2018-Jan-31 11:59N 10°17' W 075°31'0 0.0
2018-Jan-31 11:29N 10°17' W 075°31'0 0.0
2018-Jan-31 10:59N 10°17' W 075°31'0 0.0
2018-Jan-31 09:55N 10°17' W 075°31'0 0.0
2018-Jan-31 09:13N 10°17' W 075°31'0 0.0
2018-Jan-31 09:00N 10°17' W 075°31'0 0.0
2018-Jan-31 06:37N 10°17' W 075°31'0 0.0
2018-Jan-31 06:30N 10°17' W 075°31'0 0.0
2018-Jan-31 05:59N 10°17' W 075°31'0 0.0
2018-Jan-31 05:30N 10°17' W 075°31'0 0.0
2018-Jan-31 05:00N 10°17' W 075°31'0 0.0
2018-Jan-31 04:29N 10°17' W 075°31'0 0.0
2018-Jan-31 04:00N 10°17' W 075°31'0 0.0
2018-Jan-31 03:29N 10°17' W 075°31'0 0.0
2018-Jan-31 02:53N 10°17' W 075°31'0 0.0
2018-Jan-31 02:30N 10°17' W 075°31'0 0.0
2018-Jan-31 01:51N 10°17' W 075°31'0 0.0
2018-Jan-31 01:28N 10°17' W 075°31'0 0.0
2018-Jan-31 00:55N 10°17' W 075°31'0 0.0
2018-Jan-31 00:00N 10°17' W 075°31'0 0.0
2018-Jan-30 23:30N 10°17' W 075°31'0 0.0
2018-Jan-30 23:00N 10°17' W 075°31'0 0.0
2018-Jan-30 22:30N 10°17' W 075°31'0 0.0
2018-Jan-30 21:30N 10°17' W 075°31'0 0.0
2018-Jan-30 20:59N 10°17' W 075°31'0 0.0
2018-Jan-30 20:30N 10°17' W 075°31'0 0.0
2018-Jan-30 20:00N 10°17' W 075°31'0 0.0
2018-Jan-30 19:30N 10°17' W 075°31'0 0.0
2018-Jan-30 19:00N 10°17' W 075°31'0 0.0
2018-Jan-30 18:29N 10°17' W 075°31'0 0.0
2018-Jan-30 18:00N 10°17' W 075°31'0 0.0
2018-Jan-30 17:29N 10°17' W 075°31'0 0.0
2018-Jan-30 17:00N 10°17' W 075°31'0 0.0
2018-Jan-30 16:30N 10°17' W 075°31'0 0.0
2018-Jan-30 16:00N 10°17' W 075°31'0 0.0
2018-Jan-30 15:29N 10°17' W 075°31'0 0.0
2018-Jan-30 15:00N 10°17' W 075°31'0 0.0
2018-Jan-30 14:30N 10°17' W 075°31'1 0.6
2018-Jan-30 13:25N 10°17' W 075°31'0 0.0
2018-Jan-30 12:59N 10°17' W 075°31'0 0.0
2018-Jan-30 12:20N 10°17' W 075°31'0 0.0
2018-Jan-30 11:57N 10°17' W 075°31'0 0.0
2018-Jan-30 11:30N 10°17' W 075°31'0 0.0
2018-Jan-30 10:30N 10°17' W 075°31'0 0.0
2018-Jan-30 09:30N 10°17' W 075°31'0 0.0
2018-Jan-30 08:59N 10°17' W 075°31'0 0.0
2018-Jan-30 08:29N 10°17' W 075°31'0 0.0
2018-Jan-30 08:00N 10°17' W 075°31'0 0.0
2018-Jan-30 07:30N 10°17' W 075°31'0 0.0
2018-Jan-30 06:59N 10°17' W 075°31'0 0.0
2018-Jan-30 06:30N 10°17' W 075°31'0 0.0
2018-Jan-30 05:58N 10°17' W 075°31'0 0.0
2018-Jan-30 05:30N 10°17' W 075°31'0 0.0
2018-Jan-30 05:00N 10°17' W 075°31'0 0.0
2018-Jan-30 04:30N 10°17' W 075°31'0 0.0
2018-Jan-30 03:58N 10°17' W 075°31'0 0.0
2018-Jan-30 03:30N 10°17' W 075°31'0 0.0
2018-Jan-30 03:00N 10°17' W 075°31'0 0.0
2018-Jan-30 02:29N 10°17' W 075°31'0 0.0
2018-Jan-30 01:58N 10°17' W 075°31'0 0.0
2018-Jan-30 01:30N 10°17' W 075°31'0 0.0
2018-Jan-30 01:00N 10°17' W 075°31'0 0.0
2018-Jan-30 00:29N 10°17' W 075°31'0 0.0
2018-Jan-30 00:00N 10°17' W 075°31'0 0.0
2018-Jan-29 23:29N 10°17' W 075°31'0 0.0
2018-Jan-29 23:00N 10°17' W 075°31'0 0.0
2018-Jan-29 22:30N 10°17' W 075°31'0 0.0
2018-Jan-29 21:59N 10°17' W 075°31'0 0.0
2018-Jan-29 21:30N 10°17' W 075°31'0 0.0
2018-Jan-29 21:00N 10°17' W 075°31'0 0.0
2018-Jan-29 20:29N 10°17' W 075°31'0 0.0
2018-Jan-29 19:59N 10°17' W 075°31'0 0.0
2018-Jan-29 19:29N 10°17' W 075°31'0 0.0
2018-Jan-29 19:00N 10°17' W 075°31'0 0.0
2018-Jan-29 18:28N 10°17' W 075°31'0 0.0
2018-Jan-29 18:00N 10°17' W 075°31'0 0.0
2018-Jan-29 17:28N 10°17' W 075°31'0 0.0
2018-Jan-29 17:00N 10°17' W 075°31'0 0.0
2018-Jan-29 16:30N 10°17' W 075°31'0 0.0
2018-Jan-29 16:00N 10°17' W 075°31'0 0.0
2018-Jan-29 15:30N 10°17' W 075°31'0 0.0
2018-Jan-29 15:00N 10°17' W 075°31'1 1.3
2018-Jan-29 14:29N 10°17' W 075°31'0 0.0
2018-Jan-29 13:59N 10°17' W 075°31'0 0.0
2018-Jan-29 13:26N 10°17' W 075°31'0 0.0
2018-Jan-29 13:00N 10°17' W 075°31'0 0.0
2018-Jan-29 12:28N 10°17' W 075°31'0 0.0
2018-Jan-29 11:58N 10°17' W 075°31'4 7.3
2018-Jan-29 11:27N 10°13' W 075°31'0 1.0
2018-Jan-29 11:00N 10°12' W 075°31'0 0.0
2018-Jan-29 10:30N 10°12' W 075°31'0 0.0
2018-Jan-29 10:00N 10°12' W 075°31'0 0.0
2018-Jan-29 09:28N 10°12' W 075°31'0 0.0
2018-Jan-29 09:00N 10°12' W 075°31'0 0.0
2018-Jan-29 08:29N 10°12' W 075°31'0 0.0
2018-Jan-29 08:00N 10°12' W 075°31'0 0.0
2018-Jan-29 07:30N 10°12' W 075°31'0 0.0
2018-Jan-29 07:00N 10°12' W 075°31'0 0.0
2018-Jan-29 06:30N 10°12' W 075°31'0 0.0
2018-Jan-29 06:00N 10°12' W 075°31'0 0.0
2018-Jan-29 05:30N 10°12' W 075°31'0 0.0
2018-Jan-29 04:59N 10°12' W 075°31'0 0.0
2018-Jan-29 04:30N 10°12' W 075°31'0 0.0
2018-Jan-29 03:58N 10°12' W 075°31'0 0.0
2018-Jan-29 03:30N 10°12' W 075°31'0 0.0
2018-Jan-29 03:00N 10°12' W 075°31'0 0.0
2018-Jan-29 02:30N 10°12' W 075°31'0 0.0
2018-Jan-29 01:59N 10°12' W 075°31'0 0.0
2018-Jan-29 01:30N 10°12' W 075°31'0 0.0
2018-Jan-29 00:59N 10°12' W 075°31'0 0.0
2018-Jan-29 00:29N 10°12' W 075°31'0 0.0
2018-Jan-28 23:59N 10°12' W 075°31'0 0.0
2018-Jan-28 23:29N 10°12' W 075°31'0 0.0
2018-Jan-28 23:00N 10°12' W 075°31'0 0.0
2018-Jan-28 22:29N 10°12' W 075°31'0 0.0
2018-Jan-28 21:59N 10°12' W 075°31'0 0.0
2018-Jan-28 21:30N 10°12' W 075°31'0 0.0
2018-Jan-28 21:00N 10°12' W 075°31'0 0.0
2018-Jan-28 20:29N 10°12' W 075°31'0 0.0
2018-Jan-28 19:59N 10°12' W 075°31'0 0.0
2018-Jan-28 19:30N 10°12' W 075°31'0 0.0
2018-Jan-28 19:00N 10°12' W 075°31'0 0.0
2018-Jan-28 18:28N 10°12' W 075°31'0 0.0
2018-Jan-28 17:58N 10°12' W 075°31'0 0.0
2018-Jan-28 17:30N 10°12' W 075°31'0 0.0
2018-Jan-28 17:00N 10°12' W 075°31'0 0.0
2018-Jan-28 16:29N 10°12' W 075°31'0 0.0
2018-Jan-28 15:59N 10°12' W 075°31'0 0.0
2018-Jan-28 15:30N 10°12' W 075°31'0 0.0
2018-Jan-28 14:59N 10°12' W 075°31'0 0.0
2018-Jan-28 14:29N 10°12' W 075°31'0 0.0
2018-Jan-28 14:00N 10°12' W 075°31'0 0.0
2018-Jan-28 13:30N 10°12' W 075°31'0 0.0
2018-Jan-28 13:00N 10°12' W 075°31'0 0.0
2018-Jan-28 12:30N 10°12' W 075°31'0 0.0
2018-Jan-28 12:00N 10°12' W 075°31'0 0.0
2018-Jan-28 11:30N 10°12' W 075°31'0 0.0
2018-Jan-28 10:59N 10°12' W 075°31'0 0.0
2018-Jan-28 10:30N 10°12' W 075°31'0 0.0
2018-Jan-28 10:00N 10°12' W 075°31'0 0.4
2018-Jan-28 09:30N 10°12' W 075°31'0 0.0
2018-Jan-28 08:59N 10°12' W 075°31'0 0.0
2018-Jan-28 08:30N 10°12' W 075°31'0 0.0
2018-Jan-28 07:59N 10°12' W 075°31'0 0.0
2018-Jan-28 07:27N 10°12' W 075°31'0 0.0
2018-Jan-28 07:00N 10°12' W 075°31'0 0.0
2018-Jan-28 06:30N 10°12' W 075°31'0 0.0
2018-Jan-28 05:57N 10°12' W 075°31'0 0.0
2018-Jan-28 05:30N 10°12' W 075°31'0 0.0
2018-Jan-28 05:00N 10°12' W 075°31'0 0.0
2018-Jan-28 04:29N 10°12' W 075°31'0 0.0
2018-Jan-28 04:00N 10°12' W 075°31'0 0.0
2018-Jan-28 03:30N 10°12' W 075°31'0 0.0
2018-Jan-28 02:58N 10°12' W 075°31'0 0.0
2018-Jan-28 02:30N 10°12' W 075°31'0 0.0
2018-Jan-28 02:00N 10°12' W 075°31'0 0.0
2018-Jan-28 01:30N 10°12' W 075°31'0 0.0
2018-Jan-28 01:00N 10°12' W 075°31'0 0.0
2018-Jan-28 00:30N 10°12' W 075°31'0 0.0
2018-Jan-28 00:00N 10°12' W 075°31'0 0.0
2018-Jan-27 23:30N 10°12' W 075°31'2 4.9
2018-Jan-27 23:00N 10°15' W 075°31'2 4.0
2018-Jan-27 22:30N 10°17' W 075°31'0 0.0
2018-Jan-27 21:58N 10°17' W 075°31'0 0.0
2018-Jan-27 21:27N 10°17' W 075°31'0 0.0
2018-Jan-27 20:59N 10°17' W 075°31'0 0.0
2018-Jan-27 20:28N 10°17' W 075°31'0 0.0
2018-Jan-27 19:59N 10°17' W 075°31'0 0.0
2018-Jan-27 19:29N 10°17' W 075°31'0 0.0
2018-Jan-27 18:59N 10°17' W 075°31'0 0.0
2018-Jan-27 18:30N 10°17' W 075°31'0 0.0
2018-Jan-27 18:00N 10°17' W 075°31'0 0.0
2018-Jan-27 17:30N 10°17' W 075°31'0 0.0
2018-Jan-27 16:59N 10°17' W 075°31'0 0.0
2018-Jan-27 16:30N 10°17' W 075°31'0 0.0
2018-Jan-27 16:00N 10°17' W 075°31'0 0.0
2018-Jan-27 15:23N 10°17' W 075°31'0 0.0
2018-Jan-27 14:59N 10°17' W 075°31'0 0.0
2018-Jan-27 14:30N 10°17' W 075°31'0 0.0
2018-Jan-27 13:58N 10°17' W 075°31'0 0.0
2018-Jan-27 13:28N 10°17' W 075°31'0 0.0
2018-Jan-27 12:58N 10°17' W 075°31'0 0.0
2018-Jan-27 12:30N 10°17' W 075°31'0 0.1
2018-Jan-27 12:00N 10°17' W 075°31'0 0.0
2018-Jan-27 11:30N 10°17' W 075°31'0 0.0
2018-Jan-27 11:00N 10°17' W 075°31'0 0.0
2018-Jan-27 10:30N 10°17' W 075°31'0 0.0
2018-Jan-27 10:00N 10°17' W 075°31'0 0.0
2018-Jan-27 09:30N 10°17' W 075°31'0 0.0
2018-Jan-27 08:59N 10°17' W 075°31'0 0.0
2018-Jan-27 08:29N 10°17' W 075°31'0 0.0
2018-Jan-27 08:00N 10°17' W 075°31'0 0.0
2018-Jan-27 07:30N 10°17' W 075°31'0 0.0
2018-Jan-27 07:00N 10°17' W 075°31'0 0.0
2018-Jan-27 06:30N 10°17' W 075°31'0 0.0
2018-Jan-27 06:00N 10°17' W 075°31'0 0.0
2018-Jan-27 05:29N 10°17' W 075°31'0 0.0
2018-Jan-27 04:58N 10°17' W 075°31'0 0.0
2018-Jan-27 04:30N 10°17' W 075°31'0 0.0
2018-Jan-27 04:00N 10°17' W 075°31'0 0.0
2018-Jan-27 03:28N 10°17' W 075°31'0 0.0
2018-Jan-27 02:59N 10°17' W 075°31'0 0.0
2018-Jan-27 02:30N 10°17' W 075°31'0 0.0
2018-Jan-27 02:00N 10°17' W 075°31'0 0.0
2018-Jan-27 01:30N 10°17' W 075°31'0 0.0
2018-Jan-27 00:59N 10°17' W 075°31'0 0.0
2018-Jan-27 00:30N 10°17' W 075°31'0 0.0
2018-Jan-26 23:59N 10°17' W 075°31'0 0.0
2018-Jan-26 23:29N 10°17' W 075°31'0 0.1
2018-Jan-26 22:58N 10°17' W 075°31'0 0.0
2018-Jan-26 22:30N 10°17' W 075°31'0 0.0
2018-Jan-26 21:59N 10°17' W 075°31'0 0.0
2018-Jan-26 21:30N 10°17' W 075°31'0 0.0
2018-Jan-26 20:56N 10°17' W 075°31'0 0.0
2018-Jan-26 20:30N 10°17' W 075°31'0 0.0
2018-Jan-26 19:58N 10°17' W 075°31'0 0.0
2018-Jan-26 19:30N 10°17' W 075°31'0 0.0
2018-Jan-26 18:59N 10°17' W 075°31'0 0.0
2018-Jan-26 18:29N 10°17' W 075°31'0 0.0
2018-Jan-26 18:00N 10°17' W 075°31'0 0.0
2018-Jan-26 16:43N 10°17' W 075°31'0 0.0
2018-Jan-26 16:19N 10°17' W 075°31'0 0.0
2018-Jan-26 15:59N 10°17' W 075°31'0 0.0
2018-Jan-26 15:30N 10°17' W 075°31'0 0.0
2018-Jan-26 15:00N 10°17' W 075°31'0 0.0
2018-Jan-26 14:30N 10°17' W 075°31'0 0.0
2018-Jan-26 13:47N 10°17' W 075°31'0 0.0
2018-Jan-26 13:30N 10°17' W 075°31'3 6.1
2018-Jan-26 13:00N 10°14' W 075°31'1 2.4
2018-Jan-26 12:30N 10°12' W 075°31'0 1.0
2018-Jan-26 11:59N 10°13' W 075°31'2 4.9
2018-Jan-26 11:30N 10°15' W 075°31'2 4.8
2018-Jan-26 11:00N 10°18' W 075°32'1 2.5
2018-Jan-26 10:30N 10°18' W 075°33'1 1.4
2018-Jan-26 10:00N 10°18' W 075°33'0 0.1
2018-Jan-26 09:30N 10°18' W 075°33'1 1.1
2018-Jan-26 08:58N 10°17' W 075°32'1 1.2
2018-Jan-26 08:30N 10°18' W 075°33'0 0.0
2018-Jan-26 08:00N 10°18' W 075°33'0 0.0
2018-Jan-26 07:30N 10°18' W 075°33'0 0.1
2018-Jan-26 07:00N 10°18' W 075°33'0 0.1
2018-Jan-26 06:30N 10°18' W 075°33'0 0.1
2018-Jan-26 06:00N 10°18' W 075°33'0 0.0
2018-Jan-26 05:30N 10°18' W 075°33'0 0.1
2018-Jan-26 05:00N 10°18' W 075°33'0 0.0
2018-Jan-26 04:30N 10°18' W 075°33'0 0.0
2018-Jan-26 04:00N 10°18' W 075°33'0 0.1
2018-Jan-26 03:28N 10°18' W 075°33'0 0.0
2018-Jan-26 03:00N 10°18' W 075°33'0 0.0
2018-Jan-26 02:30N 10°18' W 075°33'0 0.0
2018-Jan-26 02:00N 10°18' W 075°33'0 0.0
2018-Jan-26 01:30N 10°18' W 075°33'0 0.0
2018-Jan-26 01:00N 10°18' W 075°33'0 0.0
2018-Jan-26 00:30N 10°18' W 075°33'0 0.0
2018-Jan-26 00:00N 10°18' W 075°33'0 0.0
2018-Jan-25 23:29N 10°18' W 075°33'0 0.0
2018-Jan-25 22:59N 10°18' W 075°33'0 0.0
2018-Jan-25 22:30N 10°18' W 075°33'0 0.0
2018-Jan-25 22:00N 10°18' W 075°33'0 0.0
2018-Jan-25 21:30N 10°18' W 075°33'0 0.1
2018-Jan-25 20:59N 10°18' W 075°33'0 0.0
2018-Jan-25 20:30N 10°18' W 075°33'0 0.1
2018-Jan-25 20:00N 10°18' W 075°33'0 0.0
2018-Jan-25 19:30N 10°18' W 075°33'0 0.0
2018-Jan-25 18:58N 10°18' W 075°33'0 0.0
2018-Jan-25 18:30N 10°18' W 075°33'0 0.0
2018-Jan-25 18:00N 10°18' W 075°33'0 0.1
2018-Jan-25 17:30N 10°18' W 075°33'11124787.7
2018-Jan-25 03:23N 24°30' E 118°10'  
Track history (hours):
 
Tides and Currents Weather Stations Pressure Air Temp Water Temp Dewpoint Dewpoint Depression Visibility Wind Speed Wind Dir Waves Ship Positions

Rr Barranquilla

Last reported at 2018-Feb-04 02:20 UTC. Time now 2018-Feb-24 06:52 UTC.
Position N 10°09' W 075°30'.
Warning: this ship's position is 20 days out of date.

Length 37 m.

Type: Towing. MMSI: 799999999.

Date/timePositionNaut miles runAvg speedWind from/ knotsBaromVisibWave heightAir tempDewpointWater temp
2018-Feb-04 02:20N 10°09' W 075°30'1 3.6
2018-Feb-04 02:00N 10°10' W 075°30'2 3.9
2018-Feb-04 01:30N 10°12' W 075°31'0 0.9
2018-Feb-04 00:59N 10°12' W 075°31'4 3.1
2018-Feb-03 23:36N 10°17' W 075°31'0 0.0
2018-Feb-03 23:24N 10°17' W 075°31'0 0.0
2018-Feb-03 23:00N 10°17' W 075°31'0 0.0
2018-Feb-03 22:30N 10°17' W 075°31'0 0.0
2018-Feb-03 21:57N 10°17' W 075°31'0 0.0
2018-Feb-03 21:29N 10°17' W 075°31'0 0.0
2018-Feb-03 21:00N 10°17' W 075°31'0 0.0
2018-Feb-03 20:28N 10°17' W 075°31'0 0.0
2018-Feb-03 20:00N 10°17' W 075°31'0 0.0
2018-Feb-03 18:29N 10°17' W 075°31'0 0.0
2018-Feb-03 18:00N 10°17' W 075°31'0 0.0
2018-Feb-03 17:29N 10°17' W 075°31'0 0.0
2018-Feb-03 16:55N 10°17' W 075°31'4 4.7
2018-Feb-03 15:59N 10°12' W 075°31'0 0.0
2018-Feb-03 15:30N 10°12' W 075°31'0 0.3
2018-Feb-03 15:00N 10°12' W 075°31'0 0.0
2018-Feb-03 14:30N 10°12' W 075°31'0 0.2
2018-Feb-03 14:00N 10°12' W 075°31'0 0.2
2018-Feb-03 13:29N 10°12' W 075°31'0 0.0
2018-Feb-03 13:00N 10°12' W 075°31'0 0.0
2018-Feb-03 12:25N 10°12' W 075°31'0 0.1
2018-Feb-03 12:00N 10°12' W 075°31'0 0.0
2018-Feb-03 10:57N 10°12' W 075°31'0 0.0
2018-Feb-03 10:30N 10°12' W 075°31'0 0.0
2018-Feb-03 10:00N 10°12' W 075°31'0 0.0
2018-Feb-03 09:30N 10°12' W 075°31'0 0.0
2018-Feb-03 08:59N 10°12' W 075°31'0 0.0
2018-Feb-03 08:30N 10°12' W 075°31'0 0.0
2018-Feb-03 08:00N 10°12' W 075°31'0 0.0
2018-Feb-03 06:30N 10°12' W 075°31'0 0.0
2018-Feb-03 05:59N 10°12' W 075°31'0 0.0
2018-Feb-03 05:29N 10°12' W 075°31'0 0.0
2018-Feb-03 05:00N 10°12' W 075°31'1 1.4
2018-Feb-03 04:00N 10°14' W 075°31'3 5.9
2018-Feb-03 03:30N 10°17' W 075°31'3 1.8
2018-Feb-03 02:00N 10°14' W 075°31'1 1.7
2018-Feb-03 01:29N 10°15' W 075°31'2 4.9
2018-Feb-03 01:00N 10°17' W 075°31'0 0.0
2018-Feb-02 23:28N 10°17' W 075°31'0 0.0
2018-Feb-02 23:00N 10°17' W 075°31'0 0.0
2018-Feb-02 22:30N 10°17' W 075°31'0 0.0
2018-Feb-02 21:58N 10°17' W 075°31'0 0.0
2018-Feb-02 21:30N 10°17' W 075°31'0 0.0
2018-Feb-02 20:59N 10°17' W 075°31'0 0.9
2018-Feb-02 20:28N 10°17' W 075°31'0 0.0
2018-Feb-02 18:08N 10°17' W 075°31'0 0.0
2018-Feb-02 17:57N 10°17' W 075°31'0 0.0
2018-Feb-02 17:30N 10°17' W 075°31'0 0.0
2018-Feb-02 16:58N 10°17' W 075°31'0 0.0
2018-Feb-02 16:28N 10°17' W 075°31'0 0.0
2018-Feb-02 15:30N 10°17' W 075°31'0 0.0
2018-Feb-02 14:30N 10°17' W 075°31'0 0.0
2018-Feb-02 14:00N 10°17' W 075°31'0 0.0
2018-Feb-02 13:21N 10°17' W 075°31'0 0.0
2018-Feb-02 12:59N 10°17' W 075°31'0 0.0
2018-Feb-02 12:30N 10°17' W 075°31'0 0.0
2018-Feb-02 12:00N 10°17' W 075°31'0 0.0
2018-Feb-02 11:30N 10°17' W 075°31'0 0.0
2018-Feb-02 10:59N 10°17' W 075°31'0 0.0
2018-Feb-02 10:03N 10°17' W 075°31'0 0.0
2018-Feb-02 10:00N 10°17' W 075°31'0 0.0
2018-Feb-02 09:30N 10°17' W 075°31'0 0.0
2018-Feb-02 09:00N 10°17' W 075°31'0 0.0
2018-Feb-02 08:31N 10°17' W 075°31'0 0.0
2018-Feb-02 08:00N 10°17' W 075°31'0 0.0
2018-Feb-02 07:30N 10°17' W 075°31'0 0.0
2018-Feb-02 07:00N 10°17' W 075°31'0 0.0
2018-Feb-02 06:29N 10°17' W 075°31'0 0.0
2018-Feb-02 06:00N 10°17' W 075°31'0 0.0
2018-Feb-02 05:29N 10°17' W 075°31'0 0.0
2018-Feb-02 04:59N 10°17' W 075°31'0 0.0
2018-Feb-02 04:29N 10°17' W 075°31'0 0.0
2018-Feb-02 04:00N 10°17' W 075°31'0 0.0
2018-Feb-02 03:30N 10°17' W 075°31'0 0.0
2018-Feb-02 03:00N 10°17' W 075°31'0 0.0
2018-Feb-02 02:30N 10°17' W 075°31'0 0.0
2018-Feb-02 02:00N 10°17' W 075°31'0 0.0
2018-Feb-02 01:30N 10°17' W 075°31'0 0.0
2018-Feb-02 01:00N 10°17' W 075°31'0 0.0
2018-Feb-02 00:29N 10°17' W 075°31'0 0.0
2018-Feb-02 00:00N 10°17' W 075°31'0 0.0
2018-Feb-01 23:30N 10°17' W 075°31'0 0.0
2018-Feb-01 23:00N 10°17' W 075°31'0 0.0
2018-Feb-01 21:48N 10°17' W 075°31'0 0.0
2018-Feb-01 21:28N 10°17' W 075°31'0 0.0
2018-Feb-01 19:30N 10°17' W 075°31'0 0.0
2018-Feb-01 19:00N 10°17' W 075°31'0 0.0
2018-Feb-01 18:30N 10°17' W 075°31'0 0.0
2018-Feb-01 17:59N 10°17' W 075°31'0 0.0
2018-Feb-01 17:29N 10°17' W 075°31'0 0.0
2018-Feb-01 16:59N 10°17' W 075°31'0 0.0
2018-Feb-01 16:30N 10°17' W 075°31'0 0.0
2018-Feb-01 16:00N 10°17' W 075°31'0 0.0
2018-Feb-01 15:30N 10°17' W 075°31'0 0.0
2018-Feb-01 15:00N 10°17' W 075°31'0 0.0
2018-Feb-01 13:29N 10°17' W 075°31'0 0.0
2018-Feb-01 13:00N 10°17' W 075°31'0 0.0
2018-Feb-01 12:30N 10°17' W 075°31'0 0.0
2018-Feb-01 12:00N 10°17' W 075°31'0 0.0
2018-Feb-01 11:00N 10°17' W 075°31'0 0.0
2018-Feb-01 10:29N 10°17' W 075°31'0 0.0
2018-Feb-01 10:00N 10°17' W 075°31'0 0.0
2018-Feb-01 09:30N 10°17' W 075°31'0 0.0
2018-Feb-01 09:00N 10°17' W 075°31'0 0.0
2018-Feb-01 08:30N 10°17' W 075°31'0 0.0
2018-Feb-01 07:30N 10°17' W 075°31'0 0.0
2018-Feb-01 07:00N 10°17' W 075°31'0 0.0
2018-Feb-01 06:30N 10°17' W 075°31'0 0.0
2018-Feb-01 06:00N 10°17' W 075°31'0 0.0
2018-Feb-01 05:30N 10°17' W 075°31'0 0.0
2018-Feb-01 05:00N 10°17' W 075°31'0 0.0
2018-Feb-01 04:30N 10°17' W 075°31'0 0.0
2018-Feb-01 04:00N 10°17' W 075°31'0 0.0
2018-Feb-01 03:00N 10°17' W 075°31'0 0.0
2018-Feb-01 02:30N 10°17' W 075°31'0 0.0
2018-Feb-01 01:59N 10°17' W 075°31'0 0.0
2018-Feb-01 01:27N 10°17' W 075°31'0 0.0
2018-Feb-01 01:00N 10°17' W 075°31'0 0.0
2018-Feb-01 00:29N 10°17' W 075°31'0 0.0
2018-Feb-01 00:00N 10°17' W 075°31'0 0.0
2018-Jan-31 23:00N 10°17' W 075°31'0 0.0
2018-Jan-31 22:27N 10°17' W 075°31'0 0.0
2018-Jan-31 20:59N 10°17' W 075°31'0 0.0
2018-Jan-31 20:30N 10°17' W 075°31'0 0.0
2018-Jan-31 20:00N 10°17' W 075°31'0 0.0
2018-Jan-31 19:30N 10°17' W 075°31'0 0.0
2018-Jan-31 18:59N 10°17' W 075°31'0 0.0
2018-Jan-31 16:35N 10°17' W 075°31'0 0.0
2018-Jan-31 16:20N 10°17' W 075°31'0 0.0
2018-Jan-31 15:56N 10°17' W 075°31'0 0.0
2018-Jan-31 14:53N 10°17' W 075°31'0 0.0
2018-Jan-31 14:29N 10°17' W 075°31'0 0.0
2018-Jan-31 13:00N 10°17' W 075°31'0 0.0
2018-Jan-31 12:28N 10°17' W 075°31'0 0.0
2018-Jan-31 11:59N 10°17' W 075°31'0 0.0
2018-Jan-31 11:29N 10°17' W 075°31'0 0.0
2018-Jan-31 10:59N 10°17' W 075°31'0 0.0
2018-Jan-31 09:55N 10°17' W 075°31'0 0.0
2018-Jan-31 09:13N 10°17' W 075°31'0 0.0
2018-Jan-31 09:00N 10°17' W 075°31'0 0.0
2018-Jan-31 06:37N 10°17' W 075°31'0 0.0
2018-Jan-31 06:30N 10°17' W 075°31'0 0.0
2018-Jan-31 05:59N 10°17' W 075°31'0 0.0
2018-Jan-31 05:30N 10°17' W 075°31'0 0.0
2018-Jan-31 05:00N 10°17' W 075°31'0 0.0
2018-Jan-31 04:29N 10°17' W 075°31'0 0.0
2018-Jan-31 04:00N 10°17' W 075°31'0 0.0
2018-Jan-31 03:29N 10°17' W 075°31'0 0.0
2018-Jan-31 02:53N 10°17' W 075°31'0 0.0
2018-Jan-31 02:30N 10°17' W 075°31'0 0.0
2018-Jan-31 01:51N 10°17' W 075°31'0 0.0
2018-Jan-31 01:28N 10°17' W 075°31'0 0.0
2018-Jan-31 00:55N 10°17' W 075°31'0 0.0
2018-Jan-31 00:00N 10°17' W 075°31'0 0.0
2018-Jan-30 23:30N 10°17' W 075°31'0 0.0
2018-Jan-30 23:00N 10°17' W 075°31'0 0.0
2018-Jan-30 22:30N 10°17' W 075°31'0 0.0
2018-Jan-30 21:30N 10°17' W 075°31'0 0.0
2018-Jan-30 20:59N 10°17' W 075°31'0 0.0
2018-Jan-30 20:30N 10°17' W 075°31'0 0.0
2018-Jan-30 20:00N 10°17' W 075°31'0 0.0
2018-Jan-30 19:30N 10°17' W 075°31'0 0.0
2018-Jan-30 19:00N 10°17' W 075°31'0 0.0
2018-Jan-30 18:29N 10°17' W 075°31'0 0.0
2018-Jan-30 18:00N 10°17' W 075°31'0 0.0
2018-Jan-30 17:29N 10°17' W 075°31'0 0.0
2018-Jan-30 17:00N 10°17' W 075°31'0 0.0
2018-Jan-30 16:30N 10°17' W 075°31'0 0.0
2018-Jan-30 16:00N 10°17' W 075°31'0 0.0
2018-Jan-30 15:29N 10°17' W 075°31'0 0.0
2018-Jan-30 15:00N 10°17' W 075°31'0 0.0
2018-Jan-30 14:30N 10°17' W 075°31'1 0.6
2018-Jan-30 13:25N 10°17' W 075°31'0 0.0
2018-Jan-30 12:59N 10°17' W 075°31'0 0.0
2018-Jan-30 12:20N 10°17' W 075°31'0 0.0
2018-Jan-30 11:57N 10°17' W 075°31'0 0.0
2018-Jan-30 11:30N 10°17' W 075°31'0 0.0
2018-Jan-30 10:30N 10°17' W 075°31'0 0.0
2018-Jan-30 09:30N 10°17' W 075°31'0 0.0
2018-Jan-30 08:59N 10°17' W 075°31'0 0.0
2018-Jan-30 08:29N 10°17' W 075°31'0 0.0
2018-Jan-30 08:00N 10°17' W 075°31'0 0.0
2018-Jan-30 07:30N 10°17' W 075°31'0 0.0
2018-Jan-30 06:59N 10°17' W 075°31'0 0.0
2018-Jan-30 06:30N 10°17' W 075°31'0 0.0
2018-Jan-30 05:58N 10°17' W 075°31'0 0.0
2018-Jan-30 05:30N 10°17' W 075°31'0 0.0
2018-Jan-30 05:00N 10°17' W 075°31'0 0.0
2018-Jan-30 04:30N 10°17' W 075°31'0 0.0
2018-Jan-30 03:58N 10°17' W 075°31'0 0.0
2018-Jan-30 03:30N 10°17' W 075°31'0 0.0
2018-Jan-30 03:00N 10°17' W 075°31'0 0.0
2018-Jan-30 02:29N 10°17' W 075°31'0 0.0
2018-Jan-30 01:58N 10°17' W 075°31'0 0.0
2018-Jan-30 01:30N 10°17' W 075°31'0 0.0
2018-Jan-30 01:00N 10°17' W 075°31'0 0.0
2018-Jan-30 00:29N 10°17' W 075°31'0 0.0
2018-Jan-30 00:00N 10°17' W 075°31'0 0.0
2018-Jan-29 23:29N 10°17' W 075°31'0 0.0
2018-Jan-29 23:00N 10°17' W 075°31'0 0.0
2018-Jan-29 22:30N 10°17' W 075°31'0 0.0
2018-Jan-29 21:59N 10°17' W 075°31'0 0.0
2018-Jan-29 21:30N 10°17' W 075°31'0 0.0
2018-Jan-29 21:00N 10°17' W 075°31'0 0.0
2018-Jan-29 20:29N 10°17' W 075°31'0 0.0
2018-Jan-29 19:59N 10°17' W 075°31'0 0.0
2018-Jan-29 19:29N 10°17' W 075°31'0 0.0
2018-Jan-29 19:00N 10°17' W 075°31'0 0.0
2018-Jan-29 18:28N 10°17' W 075°31'0 0.0
2018-Jan-29 18:00N 10°17' W 075°31'0 0.0
2018-Jan-29 17:28N 10°17' W 075°31'0 0.0
2018-Jan-29 17:00N 10°17' W 075°31'0 0.0
2018-Jan-29 16:30N 10°17' W 075°31'0 0.0
2018-Jan-29 16:00N 10°17' W 075°31'0 0.0
2018-Jan-29 15:30N 10°17' W 075°31'0 0.0
2018-Jan-29 15:00N 10°17' W 075°31'1 1.3
2018-Jan-29 14:29N 10°17' W 075°31'0 0.0
2018-Jan-29 13:59N 10°17' W 075°31'0 0.0
2018-Jan-29 13:26N 10°17' W 075°31'0 0.0
2018-Jan-29 13:00N 10°17' W 075°31'0 0.0
2018-Jan-29 12:28N 10°17' W 075°31'0 0.0
2018-Jan-29 11:58N 10°17' W 075°31'4 7.3
2018-Jan-29 11:27N 10°13' W 075°31'0 1.0
2018-Jan-29 11:00N 10°12' W 075°31'0 0.0
2018-Jan-29 10:30N 10°12' W 075°31'0 0.0
2018-Jan-29 10:00N 10°12' W 075°31'0 0.0
2018-Jan-29 09:28N 10°12' W 075°31'0 0.0
2018-Jan-29 09:00N 10°12' W 075°31'0 0.0
2018-Jan-29 08:29N 10°12' W 075°31'0 0.0
2018-Jan-29 08:00N 10°12' W 075°31'0 0.0
2018-Jan-29 07:30N 10°12' W 075°31'0 0.0
2018-Jan-29 07:00N 10°12' W 075°31'0 0.0
2018-Jan-29 06:30N 10°12' W 075°31'0 0.0
2018-Jan-29 06:00N 10°12' W 075°31'0 0.0
2018-Jan-29 05:30N 10°12' W 075°31'0 0.0
2018-Jan-29 04:59N 10°12' W 075°31'0 0.0
2018-Jan-29 04:30N 10°12' W 075°31'0 0.0
2018-Jan-29 03:58N 10°12' W 075°31'0 0.0
2018-Jan-29 03:30N 10°12' W 075°31'0 0.0
2018-Jan-29 03:00N 10°12' W 075°31'0 0.0
2018-Jan-29 02:30N 10°12' W 075°31'0 0.0
2018-Jan-29 01:59N 10°12' W 075°31'0 0.0
2018-Jan-29 01:30N 10°12' W 075°31'0 0.0
2018-Jan-29 00:59N 10°12' W 075°31'0 0.0
2018-Jan-29 00:29N 10°12' W 075°31'0 0.0
2018-Jan-28 23:59N 10°12' W 075°31'0 0.0
2018-Jan-28 23:29N 10°12' W 075°31'0 0.0
2018-Jan-28 23:00N 10°12' W 075°31'0 0.0
2018-Jan-28 22:29N 10°12' W 075°31'0 0.0
2018-Jan-28 21:59N 10°12' W 075°31'0 0.0
2018-Jan-28 21:30N 10°12' W 075°31'0 0.0
2018-Jan-28 21:00N 10°12' W 075°31'0 0.0
2018-Jan-28 20:29N 10°12' W 075°31'0 0.0
2018-Jan-28 19:59N 10°12' W 075°31'0 0.0
2018-Jan-28 19:30N 10°12' W 075°31'0 0.0
2018-Jan-28 19:00N 10°12' W 075°31'0 0.0
2018-Jan-28 18:28N 10°12' W 075°31'0 0.0
2018-Jan-28 17:58N 10°12' W 075°31'0 0.0
2018-Jan-28 17:30N 10°12' W 075°31'0 0.0
2018-Jan-28 17:00N 10°12' W 075°31'0 0.0
2018-Jan-28 16:29N 10°12' W 075°31'0 0.0
2018-Jan-28 15:59N 10°12' W 075°31'0 0.0
2018-Jan-28 15:30N 10°12' W 075°31'0 0.0
2018-Jan-28 14:59N 10°12' W 075°31'0 0.0
2018-Jan-28 14:29N 10°12' W 075°31'0 0.0
2018-Jan-28 14:00N 10°12' W 075°31'0 0.0
2018-Jan-28 13:30N 10°12' W 075°31'0 0.0
2018-Jan-28 13:00N 10°12' W 075°31'0 0.0
2018-Jan-28 12:30N 10°12' W 075°31'0 0.0
2018-Jan-28 12:00N 10°12' W 075°31'0 0.0
2018-Jan-28 11:30N 10°12' W 075°31'0 0.0
2018-Jan-28 10:59N 10°12' W 075°31'0 0.0
2018-Jan-28 10:30N 10°12' W 075°31'0 0.0
2018-Jan-28 10:00N 10°12' W 075°31'0 0.4
2018-Jan-28 09:30N 10°12' W 075°31'0 0.0
2018-Jan-28 08:59N 10°12' W 075°31'0 0.0
2018-Jan-28 08:30N 10°12' W 075°31'0 0.0
2018-Jan-28 07:59N 10°12' W 075°31'0 0.0
2018-Jan-28 07:27N 10°12' W 075°31'0 0.0
2018-Jan-28 07:00N 10°12' W 075°31'0 0.0
2018-Jan-28 06:30N 10°12' W 075°31'0 0.0
2018-Jan-28 05:57N 10°12' W 075°31'0 0.0
2018-Jan-28 05:30N 10°12' W 075°31'0 0.0
2018-Jan-28 05:00N 10°12' W 075°31'0 0.0
2018-Jan-28 04:29N 10°12' W 075°31'0 0.0
2018-Jan-28 04:00N 10°12' W 075°31'0 0.0
2018-Jan-28 03:30N 10°12' W 075°31'0 0.0
2018-Jan-28 02:58N 10°12' W 075°31'0 0.0
2018-Jan-28 02:30N 10°12' W 075°31'0 0.0
2018-Jan-28 02:00N 10°12' W 075°31'0 0.0
2018-Jan-28 01:30N 10°12' W 075°31'0 0.0
2018-Jan-28 01:00N 10°12' W 075°31'0 0.0
2018-Jan-28 00:30N 10°12' W 075°31'0 0.0
2018-Jan-28 00:00N 10°12' W 075°31'0 0.0
2018-Jan-27 23:30N 10°12' W 075°31'2 4.9
2018-Jan-27 23:00N 10°15' W 075°31'2 4.0
2018-Jan-27 22:30N 10°17' W 075°31'0 0.0
2018-Jan-27 21:58N 10°17' W 075°31'0 0.0
2018-Jan-27 21:27N 10°17' W 075°31'0 0.0
2018-Jan-27 20:59N 10°17' W 075°31'0 0.0
2018-Jan-27 20:28N 10°17' W 075°31'0 0.0
2018-Jan-27 19:59N 10°17' W 075°31'0 0.0
2018-Jan-27 19:29N 10°17' W 075°31'0 0.0
2018-Jan-27 18:59N 10°17' W 075°31'0 0.0
2018-Jan-27 18:30N 10°17' W 075°31'0 0.0
2018-Jan-27 18:00N 10°17' W 075°31'0 0.0
2018-Jan-27 17:30N 10°17' W 075°31'0 0.0
2018-Jan-27 16:59N 10°17' W 075°31'0 0.0
2018-Jan-27 16:30N 10°17' W 075°31'0 0.0
2018-Jan-27 16:00N 10°17' W 075°31'0 0.0
2018-Jan-27 15:23N 10°17' W 075°31'0 0.0
2018-Jan-27 14:59N 10°17' W 075°31'0 0.0
2018-Jan-27 14:30N 10°17' W 075°31'0 0.0
2018-Jan-27 13:58N 10°17' W 075°31'0 0.0
2018-Jan-27 13:28N 10°17' W 075°31'0 0.0
2018-Jan-27 12:58N 10°17' W 075°31'0 0.0
2018-Jan-27 12:30N 10°17' W 075°31'0 0.1
2018-Jan-27 12:00N 10°17' W 075°31'0 0.0
2018-Jan-27 11:30N 10°17' W 075°31'0 0.0
2018-Jan-27 11:00N 10°17' W 075°31'0 0.0
2018-Jan-27 10:30N 10°17' W 075°31'0 0.0
2018-Jan-27 10:00N 10°17' W 075°31'0 0.0
2018-Jan-27 09:30N 10°17' W 075°31'0 0.0
2018-Jan-27 08:59N 10°17' W 075°31'0 0.0
2018-Jan-27 08:29N 10°17' W 075°31'0 0.0
2018-Jan-27 08:00N 10°17' W 075°31'0 0.0
2018-Jan-27 07:30N 10°17' W 075°31'0 0.0
2018-Jan-27 07:00N 10°17' W 075°31'0 0.0
2018-Jan-27 06:30N 10°17' W 075°31'0 0.0
2018-Jan-27 06:00N 10°17' W 075°31'0 0.0
2018-Jan-27 05:29N 10°17' W 075°31'0 0.0
2018-Jan-27 04:58N 10°17' W 075°31'0 0.0
2018-Jan-27 04:30N 10°17' W 075°31'0 0.0
2018-Jan-27 04:00N 10°17' W 075°31'0 0.0
2018-Jan-27 03:28N 10°17' W 075°31'0 0.0
2018-Jan-27 02:59N 10°17' W 075°31'0 0.0
2018-Jan-27 02:30N 10°17' W 075°31'0 0.0
2018-Jan-27 02:00N 10°17' W 075°31'0 0.0
2018-Jan-27 01:30N 10°17' W 075°31'0 0.0
2018-Jan-27 00:59N 10°17' W 075°31'0 0.0
2018-Jan-27 00:30N 10°17' W 075°31'0 0.0
2018-Jan-26 23:59N 10°17' W 075°31'0 0.0
2018-Jan-26 23:29N 10°17' W 075°31'0 0.1
2018-Jan-26 22:58N 10°17' W 075°31'0 0.0
2018-Jan-26 22:30N 10°17' W 075°31'0 0.0
2018-Jan-26 21:59N 10°17' W 075°31'0 0.0
2018-Jan-26 21:30N 10°17' W 075°31'0 0.0
2018-Jan-26 20:56N 10°17' W 075°31'0 0.0
2018-Jan-26 20:30N 10°17' W 075°31'0 0.0
2018-Jan-26 19:58N 10°17' W 075°31'0 0.0
2018-Jan-26 19:30N 10°17' W 075°31'0 0.0
2018-Jan-26 18:59N 10°17' W 075°31'0 0.0
2018-Jan-26 18:29N 10°17' W 075°31'0 0.0
2018-Jan-26 18:00N 10°17' W 075°31'0 0.0
2018-Jan-26 16:43N 10°17' W 075°31'0 0.0
2018-Jan-26 16:19N 10°17' W 075°31'0 0.0
2018-Jan-26 15:59N 10°17' W 075°31'0 0.0
2018-Jan-26 15:30N 10°17' W 075°31'0 0.0
2018-Jan-26 15:00N 10°17' W 075°31'0 0.0
2018-Jan-26 14:30N 10°17' W 075°31'0 0.0
2018-Jan-26 13:47N 10°17' W 075°31'0 0.0
2018-Jan-26 13:30N 10°17' W 075°31'3 6.1
2018-Jan-26 13:00N 10°14' W 075°31'1 2.4
2018-Jan-26 12:30N 10°12' W 075°31'0 1.0
2018-Jan-26 11:59N 10°13' W 075°31'2 4.9
2018-Jan-26 11:30N 10°15' W 075°31'2 4.8
2018-Jan-26 11:00N 10°18' W 075°32'1 2.5
2018-Jan-26 10:30N 10°18' W 075°33'1 1.4
2018-Jan-26 10:00N 10°18' W 075°33'0 0.1
2018-Jan-26 09:30N 10°18' W 075°33'1 1.1
2018-Jan-26 08:58N 10°17' W 075°32'1 1.2
2018-Jan-26 08:30N 10°18' W 075°33'0 0.0
2018-Jan-26 08:00N 10°18' W 075°33'0 0.0
2018-Jan-26 07:30N 10°18' W 075°33'0 0.1
2018-Jan-26 07:00N 10°18' W 075°33'0 0.1
2018-Jan-26 06:30N 10°18' W 075°33'0 0.1
2018-Jan-26 06:00N 10°18' W 075°33'0 0.0
2018-Jan-26 05:30N 10°18' W 075°33'0 0.1
2018-Jan-26 05:00N 10°18' W 075°33'0 0.0
2018-Jan-26 04:30N 10°18' W 075°33'0 0.0
2018-Jan-26 04:00N 10°18' W 075°33'0 0.1
2018-Jan-26 03:28N 10°18' W 075°33'0 0.0
2018-Jan-26 03:00N 10°18' W 075°33'0 0.0
2018-Jan-26 02:30N 10°18' W 075°33'0 0.0
2018-Jan-26 02:00N 10°18' W 075°33'0 0.0
2018-Jan-26 01:30N 10°18' W 075°33'0 0.0
2018-Jan-26 01:00N 10°18' W 075°33'0 0.0
2018-Jan-26 00:30N 10°18' W 075°33'0 0.0
2018-Jan-26 00:00N 10°18' W 075°33'0 0.0
2018-Jan-25 23:29N 10°18' W 075°33'0 0.0
2018-Jan-25 22:59N 10°18' W 075°33'0 0.0
2018-Jan-25 22:30N 10°18' W 075°33'0 0.0
2018-Jan-25 22:00N 10°18' W 075°33'0 0.0
2018-Jan-25 21:30N 10°18' W 075°33'0 0.1
2018-Jan-25 20:59N 10°18' W 075°33'0 0.0
2018-Jan-25 20:30N 10°18' W 075°33'0 0.1
2018-Jan-25 20:00N 10°18' W 075°33'0 0.0
2018-Jan-25 19:30N 10°18' W 075°33'0 0.0
2018-Jan-25 18:58N 10°18' W 075°33'0 0.0
2018-Jan-25 18:30N 10°18' W 075°33'0 0.0
2018-Jan-25 18:00N 10°18' W 075°33'0 0.1
2018-Jan-25 17:30N 10°18' W 075°33'11124787.7
2018-Jan-25 03:23N 24°30' E 118°10'  

Dump ship's entire track history